• Join FlightAware (Why Join?)
  • Login
  • US Flag 
11:01PM EDT


 

Airport Tracker/Info


-or-


 

Live Flight TrackerFlight Track Log ✈ N3281S ✈ 16-Mar-2014 ✈ 9N3 - KUCP

Flight Track Log - Related Links

Times and Time Zones

All times are in EDT time to prevent confusion due to time zone crossing. See the N3281S flight status page for this flight to view local times or setup timezone preferences in your user account.

Time Position Orientation Groundspeed Altitude Reporting Facility
EDT Latitude Longitude Course Direction KTS MPH feet Rate Location/Type
01:39PM 41.3589 -78.1686 260° West 125 144 5,000  Level Cleveland Center
01:40PM 41.3531 -78.2136 260° West 125 144 4,900 -120 Descending Cleveland Center
01:41PM 41.3458 -78.2597 258° West 125 144 4,800 -180 Descending Cleveland Center
01:42PM 41.3403 -78.3050 261° West 125 144 4,600 -120 Descending Cleveland Center
01:43PM 41.3336 -78.3503 259° West 125 144 4,600  Level Cleveland Center
01:44PM 41.3264 -78.3950 258° West 125 144 4,700  Climbing Cleveland Center
01:45PM 41.3181 -78.4475 258° West 125 144 4,600  Descending Cleveland Center
01:46PM 41.3144 -78.4919 264° West 125 144 4,700 60 Climbing Cleveland Center
01:48PM 41.3081 -78.5347 259° West 124 143 4,800 60 Climbing Cleveland Center
01:49PM 41.2997 -78.5772 255° West 122 140 4,900 60 Climbing Cleveland Center
01:50PM 41.2922 -78.6208 257° West 122 140 5,000 60 Climbing Cleveland Center
01:51PM 41.2853 -78.6733 260° West 122 140 5,100 60 Climbing Cleveland Center
01:52PM 41.2769 -78.7178 256° West 123 142 5,200  Climbing Cleveland Center
01:53PM 41.2711 -78.7617 260° West 122 140 5,200 -60 Level Cleveland Center
01:54PM 41.2633 -78.8067 257° West 123 142 5,100  Descending Cleveland Center
01:55PM 41.2578 -78.8511 261° West 123 142 5,200  Climbing Cleveland Center
01:56PM 41.2481 -78.9047 256° West 123 142 5,100  Descending Cleveland Center
01:57PM 41.2419 -78.9494 260° West 123 142 5,300 180 Climbing Cleveland Center
01:58PM 41.2342 -78.9928 257° West 123 142 5,500 -60 Climbing Cleveland Center
01:59PM 41.2250 -79.0372 255° West 123 142 5,200 -240 Descending Cleveland Center
02:00PM 41.2200 -79.0833 262° West 124 143 5,100 -120 Descending Cleveland Center
02:01PM 41.2139 -79.1381 262° West 124 143 5,000 -60 Descending Cleveland Center
02:02PM 41.2081 -79.1817 260° West 124 143 5,000 -60 Level Cleveland Center
02:03PM 41.2017 -79.2267 259° West 124 143 4,900  Descending Cleveland Center
02:04PM 41.1889 -79.2703 249° West 124 143 5,000  Climbing Cleveland Center
02:05PM 41.1781 -79.3206 254° West 125 144 4,900 -60 Descending Cleveland Center
02:06PM 41.1733 -79.3669 262° West 126 145 4,900  Level Cleveland Center
02:07PM 41.1653 -79.4125 257° West 126 145 4,900  Level Cleveland Center
02:08PM 41.1569 -79.4564 256° West 126 145 4,900 60 Level Cleveland Center
02:09PM 41.1472 -79.5106 257° West 126 145 5,100 180 Climbing Cleveland Center
02:10PM 41.1372 -79.5531 253° West 125 144 5,300 60 Climbing Cleveland Center
02:11PM 41.1308 -79.5950 259° West 121 139 5,300 60 Level Cleveland Center
02:12PM 41.1228 -79.6406 257° West 123 142 5,500 60 Climbing Cleveland Center
02:13PM 41.1172 -79.6853 261° West 123 142 5,500  Level Cleveland Center
02:14PM 41.1097 -79.7300 257° West 123 142 5,500 -120 Level Cleveland Center
02:15PM 41.1008 -79.7842 258° West 124 143 5,300 -300 Descending Cleveland Center
02:16PM 41.0928 -79.8333 258° West 132 152 4,900 -360 Descending Cleveland Center
02:18PM 41.0872 -79.8833 262° West 134 154 4,600 -240 Descending Cleveland Center
02:19PM 41.0828 -79.9331 263° West 135 155 4,400 -240 Descending Cleveland Center
02:20PM 41.0747 -79.9828 258° West 135 155 4,200 -180 Descending Cleveland Center
02:21PM 41.0669 -80.0408 260° West 135 155 4,100 -120 Descending Cleveland Center
02:22PM 41.0600 -80.0869 259° West 132 152 4,000 -240 Descending Cleveland Center
02:23PM 41.0558 -80.1333 263° West 131 151 3,700 -300 Descending Cleveland Center
02:24PM 41.0503 -80.1808 261° West 125 144 3,500 -240 Descending Cleveland Center